• Join FlightAware (Why Join?)
  • Login
  • US Flag 
08:20PM EST


 

Airport Tracker/Info


-or-


 

Live Flight TrackerFlight Track Log ✈ RPA4909 ✈ 23-Mar-2014 ✈ KBTV - KEWR

Flight Track Log - Related Links

Times and Time Zones

All times are in EDT time to prevent confusion due to time zone crossing. See the RPA4909 flight status page for this flight to view local times or setup timezone preferences in your user account.

Time Position Orientation Groundspeed Altitude Reporting Facility
EDT Latitude Longitude Course Direction KTS MPH feet Rate Location/Type
06:05AM 44.4547 -73.2408 195° South 175 201 6,300  Level Boston Center
06:06AM 44.1355 -73.2627 192° South  Level FlightAware Approximate
06:06AM 44.3972 -73.2547 190° South 199 229 8,200  Level Boston Center
06:07AM 44.0518 -73.2893 196° South  Level FlightAware Approximate
06:07AM 44.3328 -73.2775 194° South 236 272 9,900  Level Boston Center
06:08AM 43.9694 -73.3223 196° South  Level FlightAware Approximate
06:08AM 44.2614 -73.2983 192° South 259 298 11,300  Level Boston Center
06:09AM 43.8978 -73.3508 195° South  Level FlightAware Approximate
06:09AM 44.1856 -73.3217 192° South 280 322 12,100  Level Boston Center
06:10AM 43.8258 -73.3774 195° South  Level FlightAware Approximate
06:10AM 44.1028 -73.3475 193° South 303 349 12,200  Level Boston Center
06:11AM 44.0144 -73.3736 192° South 306 352 13,600 1,388 Climbing Boston Center
06:12AM 43.9350 -73.3958 191° South 296 341 15,000 1,328 Climbing Boston Center
06:13AM 43.8567 -73.4194 192° South 293 337 16,300 1,258 Climbing Boston Center
06:14AM 43.7783 -73.4431 192° South 292 336 17,600 1,180 Climbing Boston Center
06:15AM 43.7014 -73.4661 192° South 289 333 18,700 1,041 Climbing Boston Center
06:16AM 43.6239 -73.4875 191° South 290 334 19,700 1,059 Climbing Boston Center
06:17AM 43.5467 -73.5103 192° South 287 330 20,800 1,008 Climbing Boston Center
06:18AM 43.4722 -73.5319 192° South 278 320 21,700 595 Climbing Boston Center
06:19AM 43.3983 -73.5544 192° South 272 313 22,000 -50 Climbing Boston Center
06:20AM 43.3181 -73.5761 191° South 292 336 21,600 -683 Descending Boston Center
06:21AM 43.2378 -73.5997 192° South 296 341 20,600 -787 Descending Boston Center
06:22AM 43.1575 -73.6278 194° South 296 341 20,000 -298 Descending Boston Center
06:23AM 43.0769 -73.6644 198° South 295 339 20,000  Level Boston Center
06:24AM 42.9975 -73.6969 197° South 295 339 20,000 -498 Level Boston Center
06:27AM 42.7522 -73.8022 196° South 312 359 18,000 -803 Descending Boston Center
06:28AM 42.6594 -73.8431 198° South 312 359 16,800 -1,000 Descending Boston Center
06:29AM 42.5783 -73.8789 198° South 311 358 16,000 -393 Descending Boston Center
06:30AM 42.4981 -73.9161 199° South 306 352 16,000  Level Boston Center
06:31AM 42.4150 -73.9519 198° South 312 359 16,000  Level Boston Center
06:32AM 42.3336 -73.9881 198° South 311 358 16,000  Level Boston Center
06:33AM 42.2456 -74.0275 198° South 308 354 16,000  Level Boston Center
06:34AM 42.1633 -74.0647 199° South 311 358 16,000  Level Boston Center
06:35AM 42.0786 -74.1008 198° South 312 359 16,000  Level Boston Center
06:36AM 41.9978 -74.1372 198° South 305 351 16,000 -100 Level Boston Center
06:37AM 41.9167 -74.1711 197° South 304 350 15,800 -793 Descending Boston Center
06:38AM 41.8369 -74.2081 199° South 304 350 14,400 -1,388 Descending Boston Center
06:39AM 41.7564 -74.2419 197° South 304 350 13,000 -1,317 Descending Boston Center
06:40AM 41.6875 -74.2708 197° South 263 303 11,700 -1,268 Descending Boston Center
06:41AM 41.6147 -74.3042 199° South 261 300 10,400 -1,240 Descending Boston Center
06:42AM 41.5486 -74.3317 197° South 255 293 9,200 -1,190 Descending Boston Center
06:43AM 41.4836 -74.3600 198° South 250 288 8,000 -1,033 Descending Boston Center
06:44AM 41.4175 -74.3889 198° South 250 288 7,100 -500 Descending Boston Center
06:45AM 41.3506 -74.4178 198° South 251 289 7,000 -49 Descending Boston Center
06:46AM 41.2806 -74.4475 198° South 247 284 7,000  Level Boston Center
06:47AM 41.2142 -74.4750 197° South 247 284 7,000 -574 Level Boston Center
06:48AM 41.1167 -74.4667 176° South 264 304 5,700 -882 Descending New York TRACON
06:49AM 41.0500 -74.4667 180° South 267 307 5,000 -350 Descending New York TRACON
06:50AM 40.9667 -74.4667 180° South 268 308 5,000 -400 Level New York TRACON
06:51AM 40.9000 -74.4500 169° South 270 311 4,200 -526 Descending New York TRACON
06:52AM 40.8333 -74.4167 159° South 273 314 4,000 -421 Descending New York TRACON
06:53AM 40.7667 -74.4000 169° South 270 311 3,400 -526 Descending New York TRACON
06:54AM 40.7000 -74.3667 159° South 264 304 3,000 -579 Descending New York TRACON
06:55AM 40.6333 -74.3167 150° Southeast 255 293 2,300 -550 Descending New York TRACON
06:56AM 40.6167 -74.2500 108° East 211 243 1,900 -500 Descending New York TRACON
06:57AM 40.6333 -74.2000 66° East 110 127 1,300 -600 Descending New York TRACON
06:58AM 40.6500 -74.1833 37° Northeast 112 129 700 -600 Descending New York TRACON